Time;durP1;ratioP1;P1;durP2;ratioP2;P2;SDS_P1;SDS_P2;PMS_P1;PMS_P2;Temp;Humidity;BMP_temperature;BMP_pressure;BME280_temperature;BME280_humidity;BME280_pressure;Samples;Min_cycle;Max_cycle;Signal;HPM_P1;HPM_P2
2023/02/04 00:00:07;;;;;;;3.97;3.30;;;10.00;99.90;;;;;;5072283;28;20558;-63
2023/02/04 00:02:34;;;;;;;4.83;3.77;;;10.00;99.90;;;;;;5071636;28;20279;-63
2023/02/04 00:05:01;;;;;;;3.77;3.00;;;10.00;99.90;;;;;;5071772;28;20691;-62
2023/02/04 00:07:27;;;;;;;4.07;3.30;;;10.10;99.90;;;;;;5071542;28;20239;-64
2023/02/04 00:09:54;;;;;;;4.93;3.50;;;10.10;99.90;;;;;;5071136;28;20201;-62
2023/02/04 00:12:22;;;;;;;6.03;3.87;;;10.20;99.90;;;;;;5070700;28;20221;-62
2023/02/04 00:14:49;;;;;;;4.90;3.83;;;10.10;99.90;;;;;;5071652;28;20237;-62
2023/02/04 00:17:16;;;;;;;3.90;3.10;;;10.30;99.90;;;;;;5071661;28;20227;-64
2023/02/04 00:19:43;;;;;;;4.67;3.30;;;10.00;99.90;;;;;;5071411;28;20704;-62
2023/02/04 00:22:10;;;;;;;3.60;3.13;;;10.00;99.90;;;;;;5071626;28;20237;-61
2023/02/04 00:24:37;;;;;;;3.20;2.90;;;9.90;99.90;;;;;;5071801;28;20208;-63
2023/02/04 00:27:05;;;;;;;3.10;2.80;;;9.80;99.90;;;;;;5071236;28;20204;-64
2023/02/04 00:29:34;;;;;;;3.50;3.20;;;9.60;99.90;;;;;;5074670;28;20234;-65
2023/02/04 00:32:01;;;;;;;4.20;3.17;;;9.60;99.90;;;;;;5074505;28;20861;-63
2023/02/04 00:34:27;;;;;;;3.50;2.87;;;9.60;99.90;;;;;;5079404;28;20232;-62
2023/02/04 00:36:54;;;;;;;3.93;3.53;;;9.60;99.90;;;;;;5079709;28;20205;-63
2023/02/04 00:39:21;;;;;;;7.47;3.50;;;9.60;99.90;;;;;;5076996;28;20209;-65
2023/02/04 00:41:47;;;;;;;3.53;3.03;;;9.70;99.90;;;;;;5075161;28;20229;-61
2023/02/04 00:44:14;;;;;;;4.33;3.90;;;9.70;99.90;;;;;;5075171;28;20554;-64
2023/02/04 00:46:43;;;;;;;6.60;3.90;;;9.70;99.90;;;;;;5074785;28;20667;-63
2023/02/04 00:49:10;;;;;;;4.33;3.57;;;9.80;99.90;;;;;;5074953;28;20208;-63
2023/02/04 00:51:38;;;;;;;5.53;3.53;;;9.80;99.90;;;;;;5074279;28;20236;-63
2023/02/04 00:54:05;;;;;;;4.37;3.37;;;9.70;99.90;;;;;;5074328;28;20286;-63
2023/02/04 00:56:33;;;;;;;3.40;3.10;;;9.60;99.90;;;;;;5074590;28;20277;-63
2023/02/04 00:58:59;;;;;;;3.63;3.23;;;9.60;99.90;;;;;;5074756;28;20209;-63
2023/02/04 01:01:26;;;;;;;4.03;3.63;;;9.60;99.90;;;;;;5074228;28;20244;-63
2023/02/04 01:03:54;;;;;;;3.60;3.30;;;9.70;99.90;;;;;;5074658;28;20201;-63
2023/02/04 01:06:21;;;;;;;3.93;3.10;;;9.80;99.90;;;;;;5074327;28;20216;-63
2023/02/04 01:08:47;;;;;;;3.10;2.67;;;9.80;99.90;;;;;;5074070;28;20262;-63
2023/02/04 01:11:14;;;;;;;5.03;3.03;;;9.80;99.90;;;;;;5074175;28;20274;-63
2023/02/04 01:13:41;;;;;;;4.47;2.93;;;9.90;99.90;;;;;;5074356;28;20225;-62
2023/02/04 01:16:08;;;;;;;5.17;2.90;;;9.90;99.90;;;;;;5074258;28;20228;-63
2023/02/04 01:18:35;;;;;;;3.80;2.60;;;9.90;99.90;;;;;;5074167;28;20209;-63
2023/02/04 01:21:03;;;;;;;4.37;2.20;;;9.90;99.90;;;;;;5073660;28;20211;-65
2023/02/04 01:23:29;;;;;;;2.97;2.20;;;9.80;99.90;;;;;;5073877;28;20548;-65
2023/02/04 01:25:56;;;;;;;3.37;2.20;;;9.70;99.90;;;;;;5074075;28;20213;-63
2023/02/04 01:28:23;;;;;;;5.13;2.30;;;9.70;99.90;;;;;;5074039;28;20209;-63
2023/02/04 01:30:49;;;;;;;4.20;2.00;;;9.70;99.90;;;;;;5073458;28;20809;-64
2023/02/04 01:33:16;;;;;;;6.27;2.10;;;9.70;99.90;;;;;;5073644;28;20266;-63
2023/02/04 01:35:43;;;;;;;5.53;1.83;;;9.60;99.90;;;;;;5073824;28;20278;-62
2023/02/04 01:38:11;;;;;;;7.20;1.90;;;9.50;99.90;;;;;;5073999;28;20205;-62
2023/02/04 01:40:38;;;;;;;5.70;2.00;;;9.40;99.90;;;;;;5073646;28;20411;-62
2023/02/04 01:43:05;;;;;;;6.87;2.10;;;9.40;99.90;;;;;;5073706;28;20225;-62
2023/02/04 01:45:34;;;;;;;5.80;1.87;;;9.40;99.90;;;;;;5073215;28;20231;-64
2023/02/04 01:48:01;;;;;;;9.23;1.83;;;9.50;99.90;;;;;;5073501;28;20677;-62
2023/02/04 01:50:28;;;;;;;6.97;1.90;;;9.10;99.90;;;;;;5073263;28;20704;-65
2023/02/04 01:52:55;;;;;;;4.67;1.60;;;9.60;99.90;;;;;;5073483;28;20658;-62
2023/02/04 01:55:27;;;;;;;5.40;2.27;;;9.70;99.90;;;;;;5073722;28;20228;-62
2023/02/04 01:57:54;;;;;;;7.40;1.73;;;9.70;99.90;;;;;;5073525;28;20281;-62
2023/02/04 02:00:25;;;;;;;5.77;2.00;;;9.90;99.90;;;;;;5073075;28;20252;-65
2023/02/04 02:02:53;;;;;;;10.10;7.03;;;10.00;99.90;;;;;;5073050;28;20236;-62
2023/02/04 02:05:22;;;;;;;20.57;14.83;;;9.90;99.90;;;;;;5073316;28;20201;-63
2023/02/04 02:07:50;;;;;;;4.70;1.77;;;9.80;99.90;;;;;;5073080;28;20672;-62
2023/02/04 02:10:18;;;;;;;5.60;1.80;;;9.80;99.90;;;;;;5073344;28;20201;-62
2023/02/04 02:12:47;;;;;;;3.27;1.50;;;9.80;99.90;;;;;;5073007;28;20228;-63
2023/02/04 02:15:14;;;;;;;3.60;1.70;;;9.80;99.90;;;;;;5073023;28;20221;-62
2023/02/04 02:17:42;;;;;;;3.70;1.70;;;9.70;99.90;;;;;;5072858;28;20207;-63
2023/02/04 02:20:12;;;;;;;4.40;1.60;;;9.60;99.90;;;;;;5073229;28;20291;-62
2023/02/04 02:22:49;;;;;;;6.53;2.10;;;9.60;99.90;;;;;;5072750;28;20221;-62
2023/02/04 02:25:17;;;;;;;7.10;1.80;;;9.50;99.90;;;;;;5072864;28;20205;-62
2023/02/04 02:27:44;;;;;;;6.73;2.20;;;9.50;99.90;;;;;;5072645;28;20209;-62
2023/02/04 02:30:16;;;;;;;4.73;2.37;;;9.50;99.90;;;;;;5072957;28;20216;-62
2023/02/04 02:32:43;;;;;;;4.30;2.10;;;9.50;99.90;;;;;;5072864;28;20361;-62
2023/02/04 02:35:11;;;;;;;4.53;1.67;;;9.60;99.90;;;;;;5072610;28;20224;-64
2023/02/04 02:37:38;;;;;;;3.30;1.60;;;9.60;99.90;;;;;;5072380;28;20208;-64
2023/02/04 02:40:06;;;;;;;5.93;2.10;;;9.60;99.90;;;;;;5072523;28;20676;-64
2023/02/04 02:42:35;;;;;;;8.50;2.50;;;9.60;99.90;;;;;;5072088;28;20717;-64
2023/02/04 02:45:05;;;;;;;4.47;1.67;;;9.60;99.90;;;;;;5072445;28;20209;-64
2023/02/04 02:47:32;;;;;;;4.43;1.90;;;9.60;99.90;;;;;;5072644;28;20213;-64
2023/02/04 02:49:59;;;;;;;4.10;1.80;;;9.50;99.90;;;;;;5072377;28;20209;-63
2023/02/04 02:52:26;;;;;;;5.93;2.00;;;9.40;99.90;;;;;;5071931;28;20233;-64
2023/02/04 02:54:53;;;;;;;11.37;2.83;;;9.40;99.90;;;;;;5072117;28;20216;-63
2023/02/04 02:57:22;;;;;;;4.33;1.63;;;9.30;99.90;;;;;;5071535;28;20212;-63
2023/02/04 02:59:50;;;;;;;9.73;2.40;;;9.30;99.90;;;;;;5072277;28;20231;-64
2023/02/04 03:02:21;;;;;;;7.03;1.80;;;9.30;99.90;;;;;;5071967;28;20275;-64
2023/02/04 03:04:53;;;;;;;6.87;2.10;;;9.40;99.90;;;;;;5072206;28;20300;-65
2023/02/04 03:07:21;;;;;;;7.40;2.17;;;9.50;99.90;;;;;;5071955;28;20208;-64
2023/02/04 03:09:49;;;;;;;8.43;2.60;;;9.50;99.90;;;;;;5072035;28;20211;-63
2023/02/04 03:12:16;;;;;;;5.00;1.93;;;9.50;99.90;;;;;;5072029;28;20221;-64
2023/02/04 03:14:43;;;;;;;5.73;1.90;;;9.50;99.90;;;;;;5071747;28;20719;-63
2023/02/04 03:17:11;;;;;;;5.03;1.70;;;9.50;99.90;;;;;;5071928;28;20204;-64
2023/02/04 03:19:39;;;;;;;4.83;1.77;;;9.50;99.90;;;;;;5071835;28;20208;-64
2023/02/04 03:22:07;;;;;;;5.30;1.57;;;9.40;99.90;;;;;;5071343;28;20229;-64
2023/02/04 03:24:35;;;;;;;5.73;2.10;;;9.40;99.90;;;;;;5072375;28;20247;-63
2023/02/04 03:27:01;;;;;;;6.37;1.93;;;9.40;99.90;;;;;;5072097;28;20213;-64
2023/02/04 03:29:28;;;;;;;5.70;2.27;;;9.50;99.90;;;;;;5072113;28;20208;-64
2023/02/04 03:31:55;;;;;;;3.70;1.80;;;9.60;99.90;;;;;;5072701;28;20244;-64
2023/02/04 03:34:23;;;;;;;6.23;2.17;;;9.70;99.90;;;;;;5073211;28;20220;-64
2023/02/04 03:36:50;;;;;;;7.90;2.07;;;9.70;99.90;;;;;;5073486;28;20212;-63
2023/02/04 03:39:17;;;;;;;7.37;2.00;;;9.80;99.90;;;;;;5072968;28;20209;-64
2023/02/04 03:41:44;;;;;;;5.00;2.00;;;9.80;99.90;;;;;;5073370;28;20235;-63
2023/02/04 03:44:10;;;;;;;6.20;2.00;;;9.70;99.90;;;;;;5072669;28;20432;-63
2023/02/04 03:46:37;;;;;;;4.80;1.80;;;9.70;99.90;;;;;;5071516;28;20258;-64
2023/02/04 03:49:04;;;;;;;5.07;1.80;;;9.60;99.90;;;;;;5071373;28;20216;-63
2023/02/04 03:51:32;;;;;;;7.00;2.50;;;9.70;99.90;;;;;;5071148;28;20232;-63
2023/02/04 03:53:59;;;;;;;6.40;1.80;;;9.60;99.90;;;;;;5071617;28;20227;-63
2023/02/04 03:56:25;;;;;;;5.90;2.27;;;9.50;99.90;;;;;;5071115;28;20771;-64
2023/02/04 03:58:52;;;;;;;6.10;2.07;;;9.50;99.90;;;;;;5071802;28;20216;-63
2023/02/04 04:01:19;;;;;;;6.43;2.37;;;9.50;99.90;;;;;;5071751;28;20233;-63
2023/02/04 04:03:45;;;;;;;6.23;2.30;;;9.50;99.90;;;;;;5071904;28;20212;-64
2023/02/04 04:06:12;;;;;;;9.93;2.33;;;9.40;99.90;;;;;;5071908;28;20209;-64
2023/02/04 04:08:40;;;;;;;4.93;1.90;;;9.50;99.90;;;;;;5071904;28;20209;-64
2023/02/04 04:11:07;;;;;;;5.27;1.90;;;9.40;99.90;;;;;;5071494;28;20319;-63
2023/02/04 04:13:34;;;;;;;5.33;2.07;;;9.30;99.90;;;;;;5071392;28;20201;-64
2023/02/04 04:16:02;;;;;;;11.67;2.17;;;9.30;99.90;;;;;;5070972;28;20221;-64
2023/02/04 04:18:29;;;;;;;6.63;2.53;;;9.40;99.90;;;;;;5071365;28;20291;-63
2023/02/04 04:20:55;;;;;;;6.43;2.03;;;9.50;99.90;;;;;;5070797;28;20259;-63
2023/02/04 04:23:22;;;;;;;5.83;2.07;;;9.60;99.90;;;;;;5071243;28;20201;-64
2023/02/04 04:25:50;;;;;;;8.13;2.30;;;9.50;99.90;;;;;;5070957;28;20695;-63
2023/02/04 04:28:18;;;;;;;4.83;2.00;;;9.50;99.90;;;;;;5071007;28;20213;-64
2023/02/04 04:30:44;;;;;;;9.10;2.30;;;9.60;99.90;;;;;;5070628;28;20208;-64
2023/02/04 04:33:11;;;;;;;11.07;3.10;;;9.60;99.90;;;;;;5070852;28;20651;-64
2023/02/04 04:35:38;;;;;;;8.73;2.33;;;9.60;99.90;;;;;;5070823;28;20225;-64
2023/02/04 04:38:05;;;;;;;6.00;2.17;;;9.60;99.90;;;;;;5071617;28;20655;-64
2023/02/04 04:40:32;;;;;;;9.90;2.87;;;9.60;99.90;;;;;;5071141;28;20209;-63
2023/02/04 04:43:00;;;;;;;11.70;2.30;;;9.60;99.90;;;;;;5070676;28;20639;-64
2023/02/04 04:45:26;;;;;;;9.70;2.43;;;9.60;99.90;;;;;;5071055;28;20228;-64
2023/02/04 04:47:53;;;;;;;4.90;2.30;;;9.60;99.90;;;;;;5070981;28;20212;-64
2023/02/04 04:50:20;;;;;;;8.07;2.30;;;9.60;99.90;;;;;;5071036;28;20209;-63
2023/02/04 04:52:47;;;;;;;6.53;2.07;;;9.50;99.90;;;;;;5070379;28;20228;-63
2023/02/04 04:55:14;;;;;;;6.97;2.07;;;9.40;99.90;;;;;;5070684;28;20228;-64
2023/02/04 04:57:40;;;;;;;9.97;2.10;;;9.30;99.90;;;;;;5070624;28;20274;-63
2023/02/04 05:00:15;;;;;;;7.93;2.73;;;9.20;99.90;;;;;;5070552;28;20204;-64
2023/02/04 05:02:42;;;;;;;8.47;2.40;;;9.20;99.90;;;;;;5070444;28;20234;-63
2023/02/04 05:05:09;;;;;;;10.97;2.40;;;9.10;99.90;;;;;;5070595;28;20197;-64
2023/02/04 05:07:36;;;;;;;11.73;2.53;;;9.10;99.90;;;;;;5070399;28;20695;-63
2023/02/04 05:10:04;;;;;;;7.27;2.50;;;9.00;99.90;;;;;;5070495;28;20235;-64
2023/02/04 05:12:30;;;;;;;8.50;2.73;;;9.00;99.90;;;;;;5070141;28;20232;-62
2023/02/04 05:14:57;;;;;;;7.27;2.27;;;9.00;99.90;;;;;;5070579;28;20246;-64
2023/02/04 05:17:25;;;;;;;8.50;2.63;;;9.00;99.90;;;;;;5070740;28;20205;-63
2023/02/04 05:19:52;;;;;;;7.43;2.30;;;9.00;99.90;;;;;;5071771;28;20208;-64
2023/02/04 05:22:19;;;;;;;5.73;2.60;;;9.00;99.90;;;;;;5073825;28;20744;-63
2023/02/04 05:24:45;;;;;;;10.23;2.53;;;8.80;99.90;;;;;;5074051;28;20607;-64
2023/02/04 05:27:12;;;;;;;5.10;2.50;;;8.70;99.90;;;;;;5073832;28;20205;-63
2023/02/04 05:29:39;;;;;;;10.27;2.53;;;8.60;99.90;;;;;;5074023;28;20718;-64
2023/02/04 05:32:05;;;;;;;7.97;2.40;;;8.70;99.90;;;;;;5073521;28;20659;-63
2023/02/04 05:34:33;;;;;;;11.37;2.87;;;8.70;99.90;;;;;;5073881;28;20228;-63
2023/02/04 05:37:00;;;;;;;10.00;2.57;;;8.70;99.90;;;;;;5073762;28;20223;-63
2023/02/04 05:39:27;;;;;;;10.53;2.93;;;8.50;99.90;;;;;;5073683;28;20213;-63
2023/02/04 05:41:54;;;;;;;5.70;2.43;;;8.40;99.90;;;;;;5073591;28;20224;-63
2023/02/04 05:44:21;;;;;;;6.83;2.47;;;8.30;99.90;;;;;;5073906;28;20291;-63
2023/02/04 05:46:48;;;;;;;11.07;2.80;;;8.30;99.90;;;;;;5073600;28;20550;-63
2023/02/04 05:49:14;;;;;;;6.60;2.40;;;8.20;99.90;;;;;;5073732;28;20208;-63
2023/02/04 05:51:42;;;;;;;7.77;3.20;;;8.20;99.90;;;;;;5073462;28;20225;-63
2023/02/04 05:54:09;;;;;;;8.93;2.83;;;8.20;99.90;;;;;;5073916;28;20211;-64
2023/02/04 05:56:36;;;;;;;10.47;3.20;;;8.30;99.90;;;;;;5074016;28;20248;-64
2023/02/04 05:59:02;;;;;;;9.33;3.10;;;8.30;99.90;;;;;;5073660;28;20209;-62
2023/02/04 06:01:29;;;;;;;10.67;2.57;;;8.50;99.90;;;;;;5073449;28;20274;-63
2023/02/04 06:03:56;;;;;;;9.17;4.40;;;8.40;99.90;;;;;;5073397;28;20225;-63
2023/02/04 06:06:22;;;;;;;8.63;3.10;;;8.50;99.90;;;;;;5073227;28;20209;-64
2023/02/04 06:08:50;;;;;;;8.43;2.90;;;8.50;99.90;;;;;;5073295;28;20209;-63
2023/02/04 06:11:17;;;;;;;11.33;3.57;;;8.30;99.90;;;;;;5073377;28;20260;-62
2023/02/04 06:13:44;;;;;;;11.13;2.93;;;8.20;99.90;;;;;;5073330;28;20208;-64
2023/02/04 06:16:10;;;;;;;9.03;3.27;;;8.30;99.90;;;;;;5072973;28;20229;-62
2023/02/04 06:18:37;;;;;;;7.57;2.77;;;8.30;99.90;;;;;;5073216;28;20200;-64
2023/02/04 06:21:04;;;;;;;12.13;2.90;;;8.20;99.90;;;;;;5072915;28;20262;-64
2023/02/04 06:23:32;;;;;;;7.27;3.00;;;8.10;99.90;;;;;;5073483;28;20205;-63
2023/02/04 06:26:01;;;;;;;9.03;3.83;;;7.90;99.90;;;;;;5077288;28;20197;-63
2023/02/04 06:28:27;;;;;;;7.73;2.67;;;7.90;99.90;;;;;;5078016;28;20208;-62
2023/02/04 06:30:54;;;;;;;10.00;2.87;;;7.90;99.90;;;;;;5077318;28;20209;-64
2023/02/04 06:33:22;;;;;;;9.93;2.80;;;7.80;99.90;;;;;;5075448;28;20696;-62
2023/02/04 06:35:49;;;;;;;10.63;3.67;;;7.80;99.90;;;;;;5072611;28;20221;-63
2023/02/04 06:38:16;;;;;;;9.17;3.43;;;7.70;99.90;;;;;;5072945;28;20201;-63
2023/02/04 06:40:43;;;;;;;13.17;4.47;;;7.60;99.90;;;;;;5072797;28;20503;-62
2023/02/04 06:43:11;;;;;;;14.03;4.80;;;7.60;99.90;;;;;;5072378;28;20237;-63
2023/02/04 06:45:38;;;;;;;14.37;5.40;;;7.60;99.90;;;;;;5072422;28;20205;-64
2023/02/04 06:48:05;;;;;;;11.83;4.00;;;7.70;99.90;;;;;;5072419;28;20251;-62
2023/02/04 06:50:32;;;;;;;14.83;5.20;;;7.70;99.90;;;;;;5072265;28;20227;-65
2023/02/04 06:52:58;;;;;;;10.50;3.37;;;7.60;99.90;;;;;;5072359;28;20232;-63
2023/02/04 06:55:25;;;;;;;16.80;7.50;;;7.70;99.90;;;;;;5072810;28;20221;-64
2023/02/04 06:57:52;;;;;;;7.30;3.00;;;7.80;99.90;;;;;;5072413;28;20229;-64
2023/02/04 07:00:20;;;;;;;10.43;4.47;;;7.90;99.90;;;;;;5072253;28;20220;-62
2023/02/04 07:02:47;;;;;;;14.03;6.00;;;7.90;99.90;;;;;;5072131;28;20225;-62
2023/02/04 07:05:14;;;;;;;10.63;3.77;;;8.00;99.90;;;;;;5072361;28;20209;-63
2023/02/04 07:07:41;;;;;;;8.93;3.33;;;8.20;99.90;;;;;;5072497;28;20205;-63
2023/02/04 07:10:08;;;;;;;19.20;6.90;;;8.30;99.90;;;;;;5072278;28;20205;-63
2023/02/04 07:12:34;;;;;;;13.10;4.87;;;8.40;99.90;;;;;;5072038;28;20230;-63
2023/02/04 07:15:01;;;;;;;12.53;5.07;;;8.50;99.90;;;;;;5071836;28;20209;-62
2023/02/04 07:17:29;;;;;;;9.37;4.00;;;8.60;99.90;;;;;;5071958;28;20225;-63
2023/02/04 07:19:56;;;;;;;8.27;3.20;;;8.60;99.90;;;;;;5072088;28;20201;-63
2023/02/04 07:22:22;;;;;;;12.97;4.07;;;8.70;99.90;;;;;;5071469;28;20224;-63
2023/02/04 07:24:49;;;;;;;14.27;5.00;;;8.80;99.90;;;;;;5071640;28;20205;-63
2023/02/04 07:27:16;;;;;;;17.87;7.80;;;8.90;99.90;;;;;;5072048;28;20285;-62
2023/02/04 07:29:42;;;;;;;13.40;6.53;;;9.10;99.90;;;;;;5071639;28;20653;-63
2023/02/04 07:32:09;;;;;;;12.20;5.83;;;9.20;99.90;;;;;;5071079;28;20314;-62
2023/02/04 07:34:37;;;;;;;11.27;3.67;;;9.20;99.90;;;;;;5071629;28;20201;-63
2023/02/04 07:37:04;;;;;;;12.37;3.40;;;9.30;99.90;;;;;;5071201;28;20642;-63
2023/02/04 07:39:30;;;;;;;9.07;3.40;;;9.30;99.90;;;;;;5071385;28;20209;-64
2023/02/04 07:41:57;;;;;;;6.63;3.93;;;9.40;99.90;;;;;;5070788;28;20228;-63
2023/02/04 07:44:24;;;;;;;8.50;3.27;;;9.40;99.90;;;;;;5071110;28;20208;-63
2023/02/04 07:46:51;;;;;;;10.37;3.40;;;9.50;99.90;;;;;;5071435;28;20197;-63
2023/02/04 07:49:17;;;;;;;9.77;3.10;;;9.50;99.90;;;;;;5071098;28;20665;-63
2023/02/04 07:51:45;;;;;;;9.47;2.97;;;9.50;99.90;;;;;;5071116;28;20229;-63
2023/02/04 07:54:12;;;;;;;16.70;4.40;;;9.50;99.90;;;;;;5071156;28;20205;-63
2023/02/04 07:56:39;;;;;;;11.40;3.70;;;9.50;99.90;;;;;;5071210;28;20224;-63
2023/02/04 07:59:05;;;;;;;14.20;6.23;;;9.50;99.90;;;;;;5071102;28;20205;-63
2023/02/04 08:01:32;;;;;;;7.80;3.23;;;9.50;99.90;;;;;;5071114;28;20228;-63
2023/02/04 08:03:59;;;;;;;10.17;2.80;;;9.40;99.90;;;;;;5071939;28;20232;-62
2023/02/04 08:06:26;;;;;;;34.00;15.43;;;9.40;99.90;;;;;;5071290;28;20205;-63
2023/02/04 08:08:54;;;;;;;12.20;5.50;;;9.40;99.90;;;;;;5071064;28;20289;-63
2023/02/04 08:11:21;;;;;;;12.00;4.30;;;9.50;99.90;;;;;;5070755;28;20704;-63
2023/02/04 08:13:48;;;;;;;8.90;3.43;;;9.50;99.90;;;;;;5071201;28;20208;-63
2023/02/04 08:16:14;;;;;;;10.57;3.00;;;9.60;99.90;;;;;;5072093;28;20228;-63
2023/02/04 08:18:41;;;;;;;12.63;3.10;;;9.70;99.90;;;;;;5071801;28;20213;-63
2023/02/04 08:21:08;;;;;;;14.33;7.73;;;9.70;99.90;;;;;;5071938;28;20224;-64
2023/02/04 08:23:40;;;;;;;11.47;2.60;;;9.80;99.90;;;;;;5072260;28;20212;-62
2023/02/04 08:26:09;;;;;;;10.07;3.93;;;9.80;99.90;;;;;;5071904;28;20270;-63
2023/02/04 08:28:36;;;;;;;15.90;5.80;;;9.90;99.90;;;;;;5071523;28;20204;-62
2023/02/04 08:31:03;;;;;;;13.53;5.00;;;10.00;99.90;;;;;;5070832;28;20204;-63
2023/02/04 08:33:30;;;;;;;23.37;11.47;;;10.10;99.90;;;;;;5093591;22;20704;-59
2023/02/04 08:35:57;;;;;;;13.00;5.67;;;10.10;99.90;;;;;;5089712;28;20242;-59
2023/02/04 08:38:24;;;;;;;11.80;3.67;;;10.10;99.90;;;;;;5090991;28;20277;-58
2023/02/04 08:40:50;;;;;;;16.03;6.33;;;10.20;99.90;;;;;;5090853;28;20216;-59
2023/02/04 08:43:19;;;;;;;12.57;5.17;;;10.30;99.90;;;;;;5090637;28;20224;-59
2023/02/04 08:45:45;;;;;;;8.60;3.43;;;10.30;99.90;;;;;;5090761;28;20212;-58
2023/02/04 08:48:12;;;;;;;14.47;7.60;;;10.30;99.90;;;;;;5090877;28;20201;-58
2023/02/04 08:50:39;;;;;;;10.37;3.80;;;10.40;99.90;;;;;;5090933;28;20204;-58
2023/02/04 08:53:05;;;;;;;11.67;3.73;;;10.40;99.90;;;;;;5090416;28;20293;-58
2023/02/04 08:55:32;;;;;;;13.03;4.00;;;10.60;99.90;;;;;;5093003;28;20299;-57
2023/02/04 08:58:00;;;;;;;10.60;4.70;;;10.60;99.90;;;;;;5079229;28;20454;-58
2023/02/04 09:00:28;;;;;;;13.77;3.67;;;10.60;99.90;;;;;;5083562;28;20207;-57
2023/02/04 09:02:55;;;;;;;10.30;3.37;;;10.70;99.90;;;;;;5092995;28;20236;-56
2023/02/04 09:05:22;;;;;;;12.37;4.10;;;10.80;99.90;;;;;;5093495;28;20212;-59
2023/02/04 09:07:49;;;;;;;14.27;5.03;;;11.00;99.90;;;;;;5093512;28;20204;-60
2023/02/04 09:10:16;;;;;;;9.87;3.70;;;11.10;99.90;;;;;;5093839;28;20277;-59
2023/02/04 09:12:43;;;;;;;13.33;5.40;;;11.10;99.90;;;;;;5093506;28;20220;-62
2023/02/04 09:15:10;;;;;;;12.00;3.60;;;11.20;99.90;;;;;;5093416;28;20212;-60
2023/02/04 09:17:38;;;;;;;11.33;3.33;;;11.10;99.90;;;;;;5093263;28;20287;-61
2023/02/04 09:20:06;;;;;;;11.73;3.70;;;11.00;99.90;;;;;;5093238;28;20250;-57
2023/02/04 09:22:35;;;;;;;8.00;3.10;;;10.70;99.90;;;;;;5092870;28;20497;-59
2023/02/04 09:25:02;;;;;;;12.20;3.67;;;10.50;99.90;;;;;;5093497;28;20200;-62
2023/02/04 09:27:28;;;;;;;10.73;3.30;;;10.40;99.90;;;;;;5092893;28;20207;-61
2023/02/04 09:29:55;;;;;;;7.83;3.30;;;10.40;99.90;;;;;;5093193;28;20211;-60
2023/02/04 09:32:22;;;;;;;8.80;3.20;;;10.30;99.90;;;;;;5092197;28;20731;-57
2023/02/04 09:34:50;;;;;;;14.17;3.70;;;10.20;99.90;;;;;;5092851;28;20691;-67
2023/02/04 09:37:17;;;;;;;11.40;3.90;;;10.20;99.90;;;;;;5092933;28;20224;-58
2023/02/04 09:39:44;;;;;;;9.63;3.23;;;10.20;99.90;;;;;;5092745;28;20265;-58
2023/02/04 09:42:13;;;;;;;9.30;3.10;;;10.10;99.90;;;;;;5092605;28;20728;-58
2023/02/04 09:44:40;;;;;;;11.60;3.20;;;9.90;99.90;;;;;;5092782;28;20215;-58
2023/02/04 09:47:09;;;;;;;11.57;2.80;;;9.90;99.90;;;;;;5092599;28;20201;-57
2023/02/04 09:49:37;;;;;;;11.77;3.17;;;9.80;99.90;;;;;;5092470;28;20212;-58
2023/02/04 09:52:10;;;;;;;9.57;3.03;;;9.90;99.90;;;;;;5092307;28;20265;-60
2023/02/04 09:54:37;;;;;;;10.40;2.87;;;9.90;99.90;;;;;;5092333;28;20659;-58
2023/02/04 09:57:13;;;;;;;9.63;2.30;;;9.90;99.90;;;;;;5092820;28;20320;-59
2023/02/04 09:59:44;;;;;;;10.60;2.97;;;10.00;99.90;;;;;;5092189;28;20714;-58
2023/02/04 10:02:21;;;;;;;10.03;2.67;;;10.20;99.90;;;;;;5091947;28;20347;-58
2023/02/04 10:04:49;;;;;;;9.17;2.70;;;10.30;99.90;;;;;;5092018;28;20200;-58
2023/02/04 10:07:23;;;;;;;9.63;3.13;;;10.30;99.90;;;;;;5092213;28;20250;-58
2023/02/04 10:09:50;;;;;;;11.70;3.63;;;10.50;99.90;;;;;;5092093;28;20209;-58
2023/02/04 10:12:17;;;;;;;9.73;3.33;;;10.60;99.90;;;;;;5091733;28;20715;-58
2023/02/04 10:14:44;;;;;;;8.80;2.33;;;10.70;99.90;;;;;;5092043;28;20208;-57
2023/02/04 10:17:13;;;;;;;11.50;2.70;;;10.60;99.90;;;;;;5092043;28;20291;-58
2023/02/04 10:19:40;;;;;;;11.60;3.07;;;10.50;99.90;;;;;;5092123;28;20205;-59
2023/02/04 10:22:18;;;;;;;11.40;3.00;;;10.30;99.90;;;;;;5091696;28;20365;-57
2023/02/04 10:24:45;;;;;;;11.53;3.13;;;10.20;99.90;;;;;;5091928;28;20616;-59
2023/02/04 10:27:15;;;;;;;10.03;2.90;;;10.00;99.90;;;;;;5091753;28;20667;-58
2023/02/04 10:29:42;;;;;;;8.03;2.67;;;10.00;99.90;;;;;;5092097;28;20296;-58
2023/02/04 10:32:28;;;;;;;8.13;2.70;;;10.10;99.90;;;;;;5091500;28;20228;-58
2023/02/04 10:34:59;;;;;;;11.00;3.30;;;10.20;99.90;;;;;;5091878;28;20277;-59
2023/02/04 10:37:29;;;;;;;10.17;2.70;;;10.40;99.90;;;;;;5091754;28;20289;-57
2023/02/04 10:39:56;;;;;;;9.13;3.10;;;10.50;99.90;;;;;;5091915;28;20204;-60
2023/02/04 10:42:24;;;;;;;13.33;3.23;;;10.50;99.90;;;;;;5091244;28;20224;-59
2023/02/04 10:44:52;;;;;;;12.60;3.50;;;10.60;99.90;;;;;;5091928;28;20204;-58
2023/02/04 10:47:21;;;;;;;15.30;3.87;;;10.80;99.90;;;;;;5091613;28;20204;-58
2023/02/04 10:49:53;;;;;;;13.30;2.63;;;10.90;99.90;;;;;;5091673;28;20204;-60
2023/02/04 10:52:22;;;;;;;6.77;2.47;;;10.90;99.90;;;;;;5091670;28;20255;-58
2023/02/04 10:54:49;;;;;;;12.37;3.27;;;10.70;99.90;;;;;;5091544;28;20675;-58
2023/02/04 10:57:19;;;;;;;13.47;3.13;;;10.60;99.90;;;;;;5091343;28;20220;-57
2023/02/04 10:59:47;;;;;;;10.07;2.63;;;10.70;99.90;;;;;;5091286;28;20711;-58
2023/02/04 11:02:36;;;;;;;17.00;3.73;;;10.70;99.90;;;;;;5091137;28;20278;-57
2023/02/04 11:05:04;;;;;;;13.27;3.10;;;10.80;99.90;;;;;;5091024;28;20215;-60
2023/02/04 11:07:32;;;;;;;12.23;2.63;;;10.90;99.90;;;;;;5091284;28;20221;-59
2023/02/04 11:10:00;;;;;;;9.47;2.90;;;11.00;99.90;;;;;;5091299;28;20295;-57
2023/02/04 11:12:40;;;;;;;12.90;3.00;;;10.90;99.90;;;;;;5090858;28;20577;-57
2023/02/04 11:15:28;;;;;;;10.07;2.93;;;10.60;99.90;;;;;;5091401;28;20204;-57
2023/02/04 11:18:03;;;;;;;10.23;2.83;;;10.40;99.90;;;;;;5090261;28;20224;-57
2023/02/04 11:20:32;;;;;;;10.97;3.03;;;10.50;99.90;;;;;;5091146;28;20299;-58
2023/02/04 11:23:15;;;;;;;12.17;3.17;;;10.60;99.90;;;;;;5090719;28;20781;-59
2023/02/04 11:25:42;;;;;;;13.00;2.73;;;10.80;99.90;;;;;;5090890;28;20739;-57
2023/02/04 11:28:15;;;;;;;12.97;3.23;;;10.80;99.90;;;;;;5090976;28;20361;-56
2023/02/04 11:30:42;;;;;;;11.27;2.70;;;10.60;99.90;;;;;;5090496;28;20222;-58
2023/02/04 11:33:23;;;;;;;14.43;3.43;;;10.60;99.90;;;;;;5089989;28;20241;-57
2023/02/04 11:36:04;;;;;;;15.43;3.17;;;10.80;99.90;;;;;;5089953;28;20208;-58
2023/02/04 11:38:32;;;;;;;10.57;3.00;;;11.20;99.90;;;;;;5090696;28;20288;-62
2023/02/04 11:41:00;;;;;;;8.53;2.40;;;11.40;99.90;;;;;;5090611;28;20320;-58
2023/02/04 11:43:29;;;;;;;13.53;3.20;;;11.70;99.90;;;;;;5089960;28;20224;-63
2023/02/04 11:46:05;;;;;;;8.83;2.80;;;11.80;99.90;;;;;;5089713;28;20303;-57
2023/02/04 11:48:36;;;;;;;14.80;3.07;;;11.90;99.90;;;;;;5090638;28;20290;-58
2023/02/04 11:51:09;;;;;;;13.37;3.00;;;11.80;99.90;;;;;;5090433;28;20683;-57
2023/02/04 11:53:36;;;;;;;12.40;3.33;;;11.80;99.90;;;;;;5089711;28;20337;-58
2023/02/04 11:56:04;;;;;;;14.93;5.53;;;11.70;99.90;;;;;;5089975;28;20204;-57
2023/02/04 11:58:32;;;;;;;9.53;2.80;;;11.70;99.90;;;;;;5090392;28;20224;-57
2023/02/04 12:00:59;;;;;;;13.53;3.97;;;11.60;99.90;;;;;;5090133;28;20609;-59
2023/02/04 12:03:29;;;;;;;13.23;3.00;;;11.50;99.90;;;;;;5089612;28;20737;-62
2023/02/04 12:05:58;;;;;;;14.00;3.60;;;11.30;99.90;;;;;;5089734;28;20208;-61
2023/02/04 12:08:30;;;;;;;14.97;2.87;;;11.20;99.90;;;;;;5090312;28;20211;-58
2023/02/04 12:11:07;;;;;;;12.60;2.90;;;11.30;99.90;;;;;;5090180;28;20207;-57
2023/02/04 12:13:34;;;;;;;9.60;2.70;;;11.30;99.90;;;;;;5072239;28;20346;-59
2023/02/04 12:16:03;;;;;;;12.47;2.83;;;11.30;99.90;;;;;;5068073;28;20201;-57
2023/02/04 12:18:31;;;;;;;10.53;3.67;;;11.30;99.90;;;;;;5069577;28;20776;-60
2023/02/04 12:21:00;;;;;;;11.53;2.80;;;11.50;99.90;;;;;;5068858;28;20224;-59
2023/02/04 12:23:29;;;;;;;8.60;2.47;;;11.50;99.90;;;;;;5069366;28;20226;-59
2023/02/04 12:25:56;;;;;;;8.73;2.33;;;11.60;99.90;;;;;;5069439;28;20319;-58
2023/02/04 12:28:23;;;;;;;10.37;2.10;;;11.80;99.90;;;;;;5070728;28;20197;-57
2023/02/04 12:30:50;;;;;;;10.90;2.87;;;11.90;99.90;;;;;;5073597;28;20303;-58
2023/02/04 12:33:17;;;;;;;11.50;3.13;;;12.00;99.90;;;;;;5073361;28;20236;-57
2023/02/04 12:35:43;;;;;;;10.13;2.50;;;12.20;99.90;;;;;;5073496;28;20204;-60
2023/02/04 12:38:11;;;;;;;10.00;3.20;;;12.20;99.90;;;;;;5073575;28;20228;-58
2023/02/04 12:40:38;;;;;;;8.50;1.90;;;12.00;99.90;;;;;;5073820;28;20209;-59
2023/02/04 12:43:05;;;;;;;9.70;2.30;;;11.60;99.90;;;;;;5073159;28;20730;-58
2023/02/04 12:45:32;;;;;;;9.23;2.60;;;11.60;99.90;;;;;;5073776;28;20394;-59
2023/02/04 12:47:59;;;;;;;7.20;2.27;;;11.60;99.90;;;;;;5073640;28;20663;-59
2023/02/04 12:50:26;;;;;;;11.23;2.77;;;11.70;99.90;;;;;;5073651;28;20278;-58